createdAt,value
2018-08-24T00:01:45.741Z,16.20
2018-08-24T00:04:15.085Z,16.10
2018-08-24T00:06:44.246Z,16.00
2018-08-24T00:09:15.600Z,16.00
2018-08-24T00:11:44.827Z,16.10
2018-08-24T00:14:13.983Z,16.10
2018-08-24T00:16:43.260Z,16.20
2018-08-24T00:19:13.564Z,16.20
2018-08-24T00:21:42.867Z,16.20
2018-08-24T00:24:12.777Z,16.20
2018-08-24T00:26:41.904Z,16.20
2018-08-24T00:29:11.324Z,16.20
2018-08-24T00:31:40.967Z,16.00
2018-08-24T00:34:10.014Z,16.00
2018-08-24T00:36:39.243Z,16.00
2018-08-24T00:39:09.068Z,16.00
2018-08-24T00:41:38.097Z,16.10
2018-08-24T00:44:07.344Z,16.10
2018-08-24T00:46:36.544Z,16.20
2018-08-24T00:49:05.868Z,16.30
2018-08-24T00:51:35.256Z,16.30
2018-08-24T00:54:04.431Z,16.20
2018-08-24T00:56:33.682Z,16.30
2018-08-24T00:59:02.799Z,16.30
2018-08-24T01:01:31.763Z,16.30
2018-08-24T01:04:00.839Z,16.40
2018-08-24T01:06:30.029Z,16.50
2018-08-24T01:08:59.212Z,16.50
2018-08-24T01:11:33.487Z,16.60
2018-08-24T01:14:02.739Z,16.60
2018-08-24T01:16:37.035Z,16.70
2018-08-24T01:19:06.397Z,16.70
2018-08-24T01:21:35.537Z,16.80
2018-08-24T01:24:04.748Z,16.90
2018-08-24T01:26:34.081Z,16.90
2018-08-24T01:29:03.179Z,17.00
2018-08-24T01:31:32.429Z,17.00
2018-08-24T01:34:01.633Z,17.00
2018-08-24T01:36:30.836Z,17.00
2018-08-24T01:39:00.015Z,17.00
2018-08-24T01:41:29.288Z,17.00
2018-08-24T01:43:58.549Z,17.00
2018-08-24T01:46:27.886Z,16.90
2018-08-24T01:48:57.460Z,16.80
2018-08-24T01:51:26.625Z,16.80
2018-08-24T01:53:55.764Z,16.80
2018-08-24T01:56:25.356Z,16.90
2018-08-24T01:58:54.537Z,16.90
2018-08-24T02:01:23.764Z,16.80
2018-08-24T02:03:52.962Z,16.70
2018-08-24T02:06:22.111Z,16.80
2018-08-24T02:08:51.315Z,16.70
2018-08-24T02:11:25.592Z,16.70
2018-08-24T02:14:00.323Z,16.70
2018-08-24T02:16:35.115Z,16.60
2018-08-24T02:19:10.172Z,16.70
2018-08-24T02:21:44.371Z,16.80
2018-08-24T02:24:13.876Z,16.90
2018-08-24T02:26:43.920Z,17.00
2018-08-24T02:29:13.172Z,16.80
2018-08-24T02:31:47.385Z,16.80
2018-08-24T02:34:17.091Z,16.80
2018-08-24T02:36:46.608Z,16.70
2018-08-24T02:39:18.144Z,16.70
2018-08-24T02:41:47.288Z,16.70
2018-08-24T02:44:16.559Z,16.70
2018-08-24T02:46:45.904Z,16.60
2018-08-24T02:49:15.011Z,16.60
2018-08-24T02:51:44.039Z,16.50
2018-08-24T02:54:13.197Z,16.40
2018-08-24T02:56:42.438Z,16.50
2018-08-24T02:59:11.641Z,16.50
2018-08-24T03:01:41.102Z,16.60
2018-08-24T03:04:10.175Z,16.60
2018-08-24T03:06:39.456Z,16.60
2018-08-24T03:09:10.372Z,16.50
2018-08-24T03:11:39.481Z,16.60
2018-08-24T03:14:08.929Z,16.60
2018-08-24T03:16:38.329Z,16.50
2018-08-24T03:19:07.419Z,16.40
2018-08-24T03:21:36.637Z,16.30
2018-08-24T03:24:05.816Z,16.30
2018-08-24T03:26:35.020Z,16.30
2018-08-24T03:29:04.173Z,16.30
2018-08-24T03:31:33.540Z,16.20
2018-08-24T03:34:02.786Z,16.30
2018-08-24T03:36:31.864Z,16.30
2018-08-24T03:39:00.884Z,16.20
2018-08-24T03:41:30.049Z,16.20
2018-08-24T03:43:59.412Z,16.10
2018-08-24T03:46:28.481Z,16.10
2018-08-24T03:48:57.698Z,16.10
2018-08-24T03:51:26.858Z,16.00
2018-08-24T03:53:56.135Z,16.00
2018-08-24T03:56:25.236Z,16.10
2018-08-24T03:58:54.465Z,16.10
2018-08-24T04:01:23.674Z,16.20
2018-08-24T04:03:52.982Z,16.20
2018-08-24T04:06:22.233Z,16.10
2018-08-24T04:08:51.780Z,16.20
2018-08-24T04:11:20.980Z,16.20
2018-08-24T04:13:50.108Z,16.20
2018-08-24T04:16:19.463Z,16.20
2018-08-24T04:18:48.672Z,16.30
2018-08-24T04:21:17.812Z,16.40
2018-08-24T04:23:47.004Z,16.40
2018-08-24T04:26:16.408Z,16.40
2018-08-24T04:28:45.953Z,16.40
2018-08-24T04:31:15.057Z,16.30
2018-08-24T04:33:44.261Z,16.30
2018-08-24T04:36:13.391Z,16.30
2018-08-24T04:38:42.472Z,16.30
2018-08-24T04:41:11.776Z,16.40
2018-08-24T04:43:41.043Z,16.30
2018-08-24T04:46:10.389Z,16.30
2018-08-24T04:48:39.344Z,16.40
2018-08-24T04:51:08.552Z,16.40
2018-08-24T04:53:37.704Z,16.50
2018-08-24T04:56:06.950Z,16.60
2018-08-24T04:58:36.575Z,16.70
2018-08-24T05:01:05.608Z,16.80
2018-08-24T05:03:34.941Z,16.80
2018-08-24T05:06:03.887Z,16.80
2018-08-24T05:08:33.043Z,16.90
2018-08-24T05:11:02.163Z,17.00
2018-08-24T05:13:31.737Z,17.10
2018-08-24T05:16:01.610Z,17.30
2018-08-24T05:18:30.942Z,17.40
2018-08-24T05:20:59.883Z,17.40
2018-08-24T05:23:29.297Z,17.50
2018-08-24T05:25:58.383Z,17.60
2018-08-24T05:28:27.436Z,17.70
2018-08-24T05:30:56.676Z,17.80
2018-08-24T05:33:26.020Z,18.00
2018-08-24T05:35:55.293Z,18.20
2018-08-24T05:38:24.640Z,18.40
2018-08-24T05:40:53.792Z,18.40
2018-08-24T05:43:23.040Z,18.60
2018-08-24T05:45:52.201Z,18.60
2018-08-24T05:48:21.400Z,18.60
2018-08-24T05:50:50.693Z,18.60
2018-08-24T05:53:19.856Z,18.60
2018-08-24T05:55:49.148Z,18.60
2018-08-24T05:58:18.283Z,18.70
2018-08-24T06:00:47.528Z,18.90
2018-08-24T06:03:17.142Z,18.80
2018-08-24T06:05:51.959Z,18.90
2018-08-24T06:08:21.156Z,18.90
2018-08-24T06:10:50.707Z,19.10
2018-08-24T06:13:20.379Z,19.20
2018-08-24T06:15:50.451Z,19.40
2018-08-24T06:18:19.686Z,19.70
2018-08-24T06:20:49.103Z,19.90
2018-08-24T06:23:18.580Z,20.10
2018-08-24T06:25:47.861Z,20.40
2018-08-24T06:28:17.771Z,20.60
2018-08-24T06:30:46.928Z,20.80
2018-08-24T06:33:16.133Z,20.90
2018-08-24T06:35:45.333Z,21.20
2018-08-24T06:38:15.134Z,21.50
2018-08-24T06:40:44.307Z,21.70
2018-08-24T06:43:15.009Z,21.70
2018-08-24T06:45:44.309Z,21.70
2018-08-24T06:48:13.452Z,21.70
2018-08-24T06:50:43.447Z,22.00
2018-08-24T06:53:13.811Z,22.20
2018-08-24T06:55:42.773Z,22.50
2018-08-24T06:58:12.060Z,22.60
2018-08-24T07:00:43.849Z,22.80
2018-08-24T07:03:14.279Z,23.10
2018-08-24T07:05:43.924Z,24.00
2018-08-24T07:08:12.951Z,24.80
2018-08-24T07:10:42.279Z,25.10
2018-08-24T07:13:11.441Z,25.20
2018-08-24T07:15:40.584Z,25.10
2018-08-24T07:18:11.096Z,24.80
2018-08-24T07:20:40.716Z,24.60
2018-08-24T07:23:09.819Z,24.40
2018-08-24T07:25:39.241Z,24.30
2018-08-24T07:28:08.517Z,24.30
2018-08-24T07:30:37.663Z,24.30
2018-08-24T07:33:07.289Z,24.20
2018-08-24T07:35:36.856Z,24.20
2018-08-24T07:38:06.125Z,24.30
2018-08-24T07:40:35.472Z,24.40
2018-08-24T07:43:04.717Z,24.80
2018-08-24T07:45:33.872Z,25.10
2018-08-24T07:48:03.282Z,25.50
2018-08-24T07:50:32.636Z,25.40
2018-08-24T07:53:01.832Z,25.10
2018-08-24T07:55:32.895Z,25.10
2018-08-24T07:58:02.168Z,25.30
2018-08-24T08:00:31.532Z,25.50
2018-08-24T08:03:00.852Z,25.70
2018-08-24T08:05:30.284Z,25.60
2018-08-24T08:07:59.425Z,25.80
2018-08-24T08:10:34.002Z,26.10
2018-08-24T08:13:04.163Z,25.60
2018-08-24T08:15:33.639Z,25.50
2018-08-24T08:18:03.867Z,25.60
2018-08-24T08:20:33.086Z,25.60
2018-08-24T08:23:02.830Z,25.80
2018-08-24T08:25:33.902Z,26.30
2018-08-24T08:28:03.280Z,26.40
2018-08-24T08:30:32.351Z,26.30
2018-08-24T08:33:05.801Z,26.30
2018-08-24T08:35:36.589Z,26.30
2018-08-24T08:38:07.525Z,26.20
2018-08-24T08:40:36.870Z,26.10
2018-08-24T08:43:06.297Z,25.90
2018-08-24T08:45:35.482Z,25.70
2018-08-24T08:48:04.910Z,25.40
2018-08-24T08:50:34.129Z,25.30
2018-08-24T08:53:03.686Z,25.40
2018-08-24T08:55:34.583Z,25.20
2018-08-24T08:58:05.670Z,25.30
2018-08-24T09:00:34.873Z,25.30
2018-08-24T09:03:04.259Z,25.10
2018-08-24T09:05:33.559Z,25.20
2018-08-24T09:08:03.876Z,25.30
2018-08-24T09:10:33.542Z,25.40
2018-08-24T09:13:03.497Z,25.30
2018-08-24T09:15:33.209Z,25.40
2018-08-24T09:18:08.094Z,25.50
2018-08-24T09:20:42.931Z,25.60
2018-08-24T09:23:17.526Z,25.70
2018-08-24T09:25:52.656Z,25.60
2018-08-24T09:28:27.973Z,25.60
2018-08-24T09:31:03.978Z,25.50
2018-08-24T09:33:44.172Z,25.50
2018-08-24T09:36:21.772Z,25.50
2018-08-24T09:38:52.329Z,25.50
2018-08-24T09:41:21.741Z,25.40
2018-08-24T09:43:56.162Z,25.40
2018-08-24T09:46:30.558Z,25.50
2018-08-24T09:49:07.276Z,25.50
2018-08-24T09:51:37.160Z,25.60
2018-08-24T09:54:07.597Z,25.50
2018-08-24T09:56:37.883Z,25.50
2018-08-24T09:59:07.495Z,25.50
2018-08-24T10:01:42.569Z,25.60
2018-08-24T10:04:17.399Z,25.70
2018-08-24T10:06:51.917Z,25.90
2018-08-24T10:09:21.095Z,25.90
2018-08-24T10:11:50.197Z,25.80
2018-08-24T10:14:19.501Z,25.90
2018-08-24T10:16:49.467Z,25.80
2018-08-24T10:19:18.808Z,25.80
2018-08-24T10:21:48.003Z,25.80
2018-08-24T10:24:18.863Z,25.70
2018-08-24T10:26:48.245Z,25.70
2018-08-24T10:29:19.050Z,25.60
2018-08-24T10:31:49.007Z,25.40
2018-08-24T10:34:19.293Z,25.40
2018-08-24T10:36:49.832Z,25.40
2018-08-24T10:39:20.810Z,25.50
2018-08-24T10:41:50.819Z,25.40
2018-08-24T10:44:20.075Z,25.40
2018-08-24T10:46:49.577Z,25.40
2018-08-24T10:49:19.175Z,25.40
2018-08-24T10:51:48.372Z,25.40
2018-08-24T10:54:18.843Z,25.40
2018-08-24T10:56:48.402Z,25.40
2018-08-24T10:59:17.565Z,25.40
2018-08-24T11:01:47.702Z,25.40
2018-08-24T11:04:16.892Z,25.40
2018-08-24T11:06:46.353Z,25.40
2018-08-24T11:09:15.725Z,25.40
2018-08-24T11:11:45.502Z,25.50
2018-08-24T11:14:14.911Z,25.60
2018-08-24T11:16:45.188Z,25.60
2018-08-24T11:19:14.893Z,25.70
2018-08-24T11:21:44.900Z,25.70
2018-08-24T11:24:14.213Z,25.90
2018-08-24T11:26:43.687Z,25.90
2018-08-24T11:29:12.910Z,26.00
2018-08-24T11:31:42.412Z,26.00
2018-08-24T11:34:11.674Z,25.90
2018-08-24T11:36:41.338Z,26.10
2018-08-24T11:39:10.949Z,26.10
2018-08-24T11:41:40.281Z,26.10
2018-08-24T11:44:09.604Z,26.00
2018-08-24T11:46:38.749Z,26.30
2018-08-24T11:49:08.444Z,26.30
2018-08-24T11:51:37.619Z,26.30
2018-08-24T11:54:06.960Z,26.60
2018-08-24T11:56:36.501Z,26.80
2018-08-24T11:59:06.080Z,26.90
2018-08-24T12:01:35.317Z,26.90
2018-08-24T12:04:04.653Z,26.90
2018-08-24T12:06:34.036Z,26.90
2018-08-24T12:09:04.331Z,26.80
2018-08-24T12:11:34.593Z,26.70
2018-08-24T12:14:03.701Z,26.70
2018-08-24T12:16:33.149Z,26.30
2018-08-24T12:19:02.541Z,26.50
2018-08-24T12:21:32.848Z,26.60
2018-08-24T12:24:02.552Z,26.60
2018-08-24T12:26:31.791Z,26.60
2018-08-24T12:29:01.520Z,26.60
2018-08-24T12:31:35.374Z,26.60
2018-08-24T12:34:05.046Z,26.70
2018-08-24T12:36:35.083Z,26.90
2018-08-24T12:39:08.833Z,26.90
2018-08-24T12:41:38.426Z,26.80
2018-08-24T12:44:08.362Z,26.80
2018-08-24T12:46:38.098Z,26.80
2018-08-24T12:49:07.413Z,26.80
2018-08-24T12:51:36.864Z,26.70
2018-08-24T12:54:09.055Z,26.90
2018-08-24T12:56:40.788Z,26.90
2018-08-24T12:59:12.763Z,26.80
2018-08-24T13:01:42.514Z,26.90
2018-08-24T13:04:18.080Z,26.90
2018-08-24T13:06:53.755Z,27.30
2018-08-24T13:09:23.838Z,27.70
2018-08-24T13:11:57.807Z,28.10
2018-08-24T13:14:33.005Z,28.30
2018-08-24T13:17:05.032Z,28.50
2018-08-24T13:19:36.462Z,28.50
2018-08-24T13:22:15.837Z,28.00
2018-08-24T13:24:54.864Z,28.00
2018-08-24T13:27:33.633Z,28.00
2018-08-24T13:30:06.450Z,28.10
2018-08-24T13:32:36.312Z,28.60
2018-08-24T13:35:10.987Z,29.10
2018-08-24T13:37:45.847Z,29.20
2018-08-24T13:40:19.161Z,29.20
2018-08-24T13:42:55.202Z,28.70
2018-08-24T13:45:35.848Z,28.80
2018-08-24T13:48:10.404Z,28.50
2018-08-24T13:50:51.771Z,28.40
2018-08-24T13:53:23.724Z,28.50
2018-08-24T13:55:53.747Z,28.50
2018-08-24T13:58:23.063Z,28.30
2018-08-24T14:00:57.865Z,28.30
2018-08-24T14:03:28.209Z,28.40
2018-08-24T14:05:58.290Z,28.50
2018-08-24T14:08:27.916Z,28.70
2018-08-24T14:10:56.960Z,28.40
2018-08-24T14:13:27.757Z,28.20
2018-08-24T14:15:57.718Z,28.60
2018-08-24T14:18:27.241Z,28.40
2018-08-24T14:20:57.145Z,28.40
2018-08-24T14:23:26.503Z,28.20
2018-08-24T14:25:55.943Z,28.30
2018-08-24T14:28:26.713Z,28.10
2018-08-24T14:30:56.029Z,27.80
2018-08-24T14:33:26.802Z,27.80
2018-08-24T14:35:56.609Z,27.60
2018-08-24T14:38:25.986Z,27.30
2018-08-24T14:40:55.192Z,26.90
2018-08-24T14:43:24.572Z,26.80
2018-08-24T14:45:54.279Z,26.60
2018-08-24T14:48:23.576Z,26.50
2018-08-24T14:50:54.165Z,26.30
2018-08-24T14:53:24.882Z,26.30
2018-08-24T14:55:54.141Z,26.10
2018-08-24T14:58:23.414Z,26.00
2018-08-24T15:00:53.036Z,26.00
2018-08-24T15:03:23.965Z,25.90
2018-08-24T15:05:53.731Z,25.80
2018-08-24T15:08:24.001Z,25.60
2018-08-24T15:10:53.317Z,25.50
2018-08-24T15:13:23.311Z,25.40
2018-08-24T15:15:52.436Z,25.20
2018-08-24T15:18:21.623Z,25.10
2018-08-24T15:20:54.337Z,25.30
2018-08-24T15:23:23.869Z,25.20
2018-08-24T15:25:53.620Z,25.30
2018-08-24T15:28:23.233Z,25.20
2018-08-24T15:30:52.787Z,25.20
2018-08-24T15:33:22.517Z,25.00
2018-08-24T15:35:52.593Z,24.70
2018-08-24T15:38:24.113Z,24.40
2018-08-24T15:40:53.604Z,24.20
2018-08-24T15:43:22.851Z,24.10
2018-08-24T15:45:55.308Z,24.00
2018-08-24T15:48:26.275Z,23.70
2018-08-24T15:50:56.591Z,23.50
2018-08-24T15:53:26.367Z,23.20
2018-08-24T15:55:56.182Z,22.80
2018-08-24T15:58:25.382Z,22.60
2018-08-24T16:00:54.661Z,22.10
2018-08-24T16:03:25.614Z,21.80
2018-08-24T16:05:56.424Z,21.40
2018-08-24T16:08:25.620Z,21.30
2018-08-24T16:10:54.936Z,21.30
2018-08-24T16:13:26.284Z,21.20
2018-08-24T16:15:55.605Z,21.00
2018-08-24T16:18:25.368Z,20.80
2018-08-24T16:20:55.498Z,20.60
2018-08-24T16:23:24.705Z,20.70
2018-08-24T16:25:55.097Z,20.60
2018-08-24T16:28:24.551Z,20.50
2018-08-24T16:30:54.316Z,20.50
2018-08-24T16:33:25.400Z,20.40
2018-08-24T16:35:55.077Z,20.30
2018-08-24T16:38:24.383Z,19.90
2018-08-24T16:40:53.898Z,20.00
2018-08-24T16:43:23.023Z,20.00
2018-08-24T16:45:52.342Z,20.00
2018-08-24T16:48:22.054Z,20.10
2018-08-24T16:50:52.396Z,20.00
2018-08-24T16:53:21.763Z,20.10
2018-08-24T16:55:51.440Z,20.20
2018-08-24T16:58:21.415Z,19.70
2018-08-24T17:00:53.213Z,19.60
2018-08-24T17:03:25.833Z,19.60
2018-08-24T17:05:57.016Z,19.40
2018-08-24T17:08:27.644Z,19.30
2018-08-24T17:10:58.084Z,19.10
2018-08-24T17:13:28.483Z,19.20
2018-08-24T17:15:57.959Z,19.40
2018-08-24T17:18:27.420Z,19.40
2018-08-24T17:20:57.614Z,19.40
2018-08-24T17:23:27.324Z,19.20
2018-08-24T17:25:57.034Z,19.10
2018-08-24T17:28:26.617Z,18.90
2018-08-24T17:30:58.700Z,18.90
2018-08-24T17:33:29.419Z,19.00
2018-08-24T17:35:59.235Z,19.00
2018-08-24T17:38:30.494Z,18.90
2018-08-24T17:41:20.946Z,18.80
2018-08-24T17:43:54.240Z,18.80
2018-08-24T17:46:23.934Z,18.80
2018-08-24T17:48:53.451Z,18.70
2018-08-24T17:51:22.836Z,18.50
2018-08-24T17:53:52.623Z,18.40
2018-08-24T17:56:22.212Z,18.30
2018-08-24T17:58:51.765Z,18.30
2018-08-24T18:01:21.212Z,18.30
2018-08-24T18:03:50.382Z,18.30
2018-08-24T18:06:19.672Z,18.20
2018-08-24T18:08:49.540Z,18.30
2018-08-24T18:11:19.057Z,18.20
2018-08-24T18:13:48.358Z,18.10
2018-08-24T18:16:17.678Z,17.90
2018-08-24T18:18:46.910Z,17.80
2018-08-24T18:21:16.356Z,17.90
2018-08-24T18:23:45.740Z,17.80
2018-08-24T18:26:14.930Z,17.80
2018-08-24T18:28:44.366Z,17.70
2018-08-24T18:31:13.688Z,17.70
2018-08-24T18:33:42.925Z,17.70
2018-08-24T18:36:12.816Z,17.60
2018-08-24T18:38:42.324Z,17.50
2018-08-24T18:41:11.844Z,17.20
2018-08-24T18:43:41.241Z,17.20
2018-08-24T18:46:11.106Z,17.20
2018-08-24T18:48:40.504Z,17.20
2018-08-24T18:51:09.989Z,17.30
2018-08-24T18:53:39.130Z,17.30
2018-08-24T18:56:08.403Z,17.40
2018-08-24T18:58:38.007Z,17.40
2018-08-24T19:01:07.527Z,17.40
2018-08-24T19:03:36.748Z,17.30
2018-08-24T19:06:06.009Z,17.20
2018-08-24T19:08:35.291Z,17.30
2018-08-24T19:11:10.696Z,17.30
2018-08-24T19:13:39.751Z,17.20
2018-08-24T19:16:09.082Z,17.30
2018-08-24T19:18:43.441Z,17.10
2018-08-24T19:21:18.066Z,17.10
2018-08-24T19:23:47.485Z,16.90
2018-08-24T19:26:16.786Z,16.90
2018-08-24T19:28:52.018Z,16.80
2018-08-24T19:31:23.255Z,16.70
2018-08-24T19:33:53.145Z,16.70
2018-08-24T19:36:23.669Z,16.90
2018-08-24T19:38:54.307Z,17.00
2018-08-24T19:41:28.901Z,17.00
2018-08-24T19:43:58.302Z,17.10
2018-08-24T19:46:27.672Z,17.20
2018-08-24T19:49:02.421Z,17.20
2018-08-24T19:51:32.032Z,17.30
2018-08-24T19:54:01.449Z,17.20
2018-08-24T19:56:31.037Z,17.20
2018-08-24T19:59:08.701Z,17.20
2018-08-24T20:01:39.417Z,17.20
2018-08-24T20:04:09.309Z,17.20
2018-08-24T20:06:43.867Z,17.10
2018-08-24T20:09:18.838Z,17.00
2018-08-24T20:11:52.977Z,17.00
2018-08-24T20:14:27.527Z,17.10
2018-08-24T20:17:30.256Z,17.20
2018-08-24T20:20:00.725Z,17.20
2018-08-24T20:22:30.218Z,17.30
2018-08-24T20:24:59.746Z,17.20
2018-08-24T20:27:29.296Z,17.20
2018-08-24T20:30:01.433Z,17.00
2018-08-24T20:32:31.346Z,16.90
2018-08-24T20:35:09.646Z,17.00
2018-08-24T20:37:39.669Z,16.80
2018-08-24T20:40:09.791Z,16.80
2018-08-24T20:42:39.229Z,16.80
2018-08-24T20:45:08.476Z,16.90
2018-08-24T20:47:37.889Z,16.80
2018-08-24T20:50:07.710Z,16.90
2018-08-24T20:52:37.109Z,16.90
2018-08-24T20:55:07.034Z,16.90
2018-08-24T20:57:36.558Z,17.00
2018-08-24T21:00:07.870Z,16.90
2018-08-24T21:02:37.118Z,16.90
2018-08-24T21:05:06.722Z,17.00
2018-08-24T21:07:36.602Z,17.00
2018-08-24T21:10:06.165Z,17.10
2018-08-24T21:12:35.501Z,17.10
2018-08-24T21:15:05.162Z,17.20
2018-08-24T21:17:34.526Z,17.10
2018-08-24T21:20:03.919Z,17.20
2018-08-24T21:22:33.229Z,16.90
2018-08-24T21:25:02.677Z,17.00
2018-08-24T21:27:32.237Z,17.00
2018-08-24T21:30:01.652Z,17.10
2018-08-24T21:32:31.700Z,17.20
2018-08-24T21:35:01.104Z,17.20
2018-08-24T21:37:30.920Z,17.20
2018-08-24T21:40:00.185Z,17.10
2018-08-24T21:42:29.312Z,17.00
2018-08-24T21:44:58.630Z,17.10
2018-08-24T21:47:28.441Z,17.10
2018-08-24T21:49:57.809Z,17.10
2018-08-24T21:52:27.207Z,17.00
2018-08-24T21:54:57.480Z,17.10
2018-08-24T21:57:27.004Z,17.10
2018-08-24T21:59:56.635Z,17.00
2018-08-24T22:02:26.102Z,16.90
2018-08-24T22:04:57.081Z,17.00
2018-08-24T22:07:27.249Z,16.90
2018-08-24T22:09:58.710Z,16.90
2018-08-24T22:12:28.625Z,17.00
2018-08-24T22:14:58.164Z,17.00
2018-08-24T22:17:28.889Z,17.00
2018-08-24T22:19:58.260Z,16.90
2018-08-24T22:22:27.864Z,16.80
2018-08-24T22:24:57.282Z,16.70
2018-08-24T22:27:26.644Z,16.80
2018-08-24T22:29:56.033Z,16.80
2018-08-24T22:32:25.768Z,16.90
2018-08-24T22:34:55.462Z,17.00
2018-08-24T22:37:24.917Z,16.90
2018-08-24T22:39:54.441Z,16.90
2018-08-24T22:42:23.682Z,16.90
2018-08-24T22:44:52.981Z,16.90
2018-08-24T22:47:22.012Z,16.90
2018-08-24T22:49:51.331Z,16.90
2018-08-24T22:52:20.521Z,16.90
2018-08-24T22:54:49.897Z,16.90
2018-08-24T22:57:20.606Z,16.90
2018-08-24T22:59:49.654Z,16.90
2018-08-24T23:02:18.942Z,17.00
2018-08-24T23:04:49.278Z,17.00
2018-08-24T23:07:19.309Z,16.80
2018-08-24T23:09:48.888Z,16.70
2018-08-24T23:12:18.107Z,16.90
2018-08-24T23:14:48.201Z,16.90
2018-08-24T23:17:17.640Z,16.80
2018-08-24T23:19:46.652Z,16.80
2018-08-24T23:22:16.119Z,16.70
2018-08-24T23:24:45.739Z,16.60
2018-08-24T23:27:15.013Z,16.60
2018-08-24T23:29:44.376Z,16.60
2018-08-24T23:32:13.964Z,16.70
2018-08-24T23:34:43.247Z,16.80
2018-08-24T23:37:12.417Z,16.80
2018-08-24T23:39:41.992Z,16.70
2018-08-24T23:42:11.181Z,16.60
2018-08-24T23:44:40.482Z,16.50
2018-08-24T23:47:09.935Z,16.50
2018-08-24T23:49:39.226Z,16.60
2018-08-24T23:52:08.423Z,16.60
2018-08-24T23:54:37.701Z,16.70
2018-08-24T23:57:06.777Z,16.60
2018-08-24T23:59:36.128Z,16.60
